Time,TemperatureF,DewpointF,PressureIn,WindDirection,WindDirectionDegrees,WindSpeedMPH,WindSpeedGustMPH,Humidity,HourlyPrecipIn,Conditions,Clouds,dailyrainin,SoftwareType,DateUTC
2013-07-22 00:08:00,65.9,65.0,30.08,SSW,204,0.0,0.0,97,0.00,,,0.00,weatherlink.com 1.10,2013-07-22 04:08:00,
2013-07-22 00:23:00,66.0,65.0,30.08,SSW,204,0.0,0.0,97,0.00,,,0.00,weatherlink.com 1.10,2013-07-22 04:23:00,
2013-07-22 00:38:00,65.8,65.0,30.09,SSW,204,0.0,0.0,96,0.00,,,0.00,weatherlink.com 1.10,2013-07-22 04:38:00,
2013-07-22 00:53:00,65.7,65.0,30.08,SSW,204,0.0,0.0,96,0.00,,,0.00,weatherlink.com 1.10,2013-07-22 04:53:00,
2013-07-22 01:08:00,65.9,65.0,30.07,SSW,204,0.0,0.0,97,0.00,,,0.00,weatherlink.com 1.10,2013-07-22 05:08:00,
2013-07-22 01:23:00,65.8,65.0,30.07,SSW,204,0.0,0.0,97,0.00,,,0.00,weatherlink.com 1.10,2013-07-22 05:23:00,
2013-07-22 01:38:00,65.8,65.0,30.07,SSW,204,0.0,0.0,97,0.00,,,0.00,weatherlink.com 1.10,2013-07-22 05:38:00,
2013-07-22 01:53:00,65.8,65.0,30.06,SSW,204,0.0,0.0,97,0.00,,,0.00,weatherlink.com 1.10,2013-07-22 05:53:00,
2013-07-22 02:08:00,65.7,65.0,30.05,SSW,204,0.0,0.0,97,0.00,,,0.00,weatherlink.com 1.10,2013-07-22 06:08:00,
2013-07-22 02:23:00,65.5,65.0,30.04,SSW,204,0.0,0.0,97,0.00,,,0.00,weatherlink.com 1.10,2013-07-22 06:23:00,
2013-07-22 02:38:00,65.3,65.0,30.04,SSW,204,0.0,0.0,97,0.00,,,0.00,weatherlink.com 1.10,2013-07-22 06:38:00,
2013-07-22 02:53:00,65.0,64.0,30.04,SSW,204,0.0,0.0,97,0.00,,,0.00,weatherlink.com 1.10,2013-07-22 06:53:00,
2013-07-22 03:08:00,64.7,64.0,30.03,SSW,204,0.0,0.0,97,0.00,,,0.00,weatherlink.com 1.10,2013-07-22 07:08:00,
2013-07-22 03:23:00,64.3,64.0,30.03,SSW,204,0.0,0.0,97,0.00,,,0.00,weatherlink.com 1.10,2013-07-22 07:23:00,
2013-07-22 03:38:00,64.0,63.0,30.03,SSW,204,0.0,0.0,97,0.00,,,0.00,weatherlink.com 1.10,2013-07-22 07:38:00,
2013-07-22 03:53:00,64.0,63.0,30.03,SSW,204,0.0,0.0,97,0.00,,,0.00,weatherlink.com 1.10,2013-07-22 07:53:00,
2013-07-22 04:08:00,63.9,63.0,30.03,SSW,204,0.0,0.0,97,0.00,,,0.00,weatherlink.com 1.10,2013-07-22 08:08:00,
2013-07-22 04:23:00,64.2,64.0,30.03,SSW,204,0.0,0.0,98,0.00,,,0.00,weatherlink.com 1.10,2013-07-22 08:23:00,
2013-07-22 04:38:00,64.3,64.0,30.03,SSW,204,0.0,0.0,98,0.00,,,0.00,weatherlink.com 1.10,2013-07-22 08:38:00,
2013-07-22 04:53:00,64.4,64.0,30.03,SSW,204,0.0,0.0,98,0.00,,,0.00,weatherlink.com 1.10,2013-07-22 08:53:00,
2013-07-22 05:07:00,64.2,64.0,30.02,SSW,204,0.0,0.0,98,0.00,,,0.00,weatherlink.com 1.10,2013-07-22 09:07:00,
2013-07-22 05:22:00,63.9,63.0,30.03,SSW,204,0.0,0.0,98,0.00,,,0.00,weatherlink.com 1.10,2013-07-22 09:22:00,
2013-07-22 05:37:00,63.7,63.0,30.03,SSW,204,0.0,0.0,98,0.00,,,0.00,weatherlink.com 1.10,2013-07-22 09:37:00,
2013-07-22 05:52:00,63.8,63.0,30.04,SSW,204,0.0,0.0,98,0.00,,,0.00,weatherlink.com 1.10,2013-07-22 09:52:00,
2013-07-22 06:07:00,64.0,64.0,30.04,SSW,204,0.0,0.0,98,0.00,,,0.00,weatherlink.com 1.10,2013-07-22 10:07:00,
2013-07-22 06:22:00,64.3,64.0,30.03,SSW,204,0.0,0.0,98,0.00,,,0.00,weatherlink.com 1.10,2013-07-22 10:22:00,
2013-07-22 06:37:00,64.4,64.0,30.04,SSW,204,0.0,0.0,98,0.00,,,0.00,weatherlink.com 1.10,2013-07-22 10:37:00,
2013-07-22 06:52:00,64.4,64.0,30.04,SSW,205,0.0,0.0,98,0.00,,,0.00,weatherlink.com 1.10,2013-07-22 10:52:00,
2013-07-22 07:07:00,64.5,64.0,30.04,SSW,204,0.0,0.0,98,0.00,,,0.00,weatherlink.com 1.10,2013-07-22 11:07:00,
2013-07-22 07:22:00,64.5,64.0,30.04,SSW,204,0.0,0.0,98,0.00,,,0.00,weatherlink.com 1.10,2013-07-22 11:22:00,
2013-07-22 07:38:00,64.7,64.0,30.05,SSW,204,0.0,0.0,98,0.00,,,0.00,weatherlink.com 1.10,2013-07-22 11:38:00,
2013-07-22 07:53:00,64.9,64.0,30.05,SSW,205,0.0,0.0,98,0.00,,,0.00,weatherlink.com 1.10,2013-07-22 11:53:00,
2013-07-22 08:08:00,65.2,65.0,30.05,SSW,204,0.0,0.0,98,0.00,,,0.00,weatherlink.com 1.10,2013-07-22 12:08:00,
2013-07-22 08:23:00,65.7,65.0,30.06,SSW,204,0.0,0.0,98,0.00,,,0.00,weatherlink.com 1.10,2013-07-22 12:23:00,
2013-07-22 08:38:00,66.1,66.0,30.07,SSW,195,0.0,0.0,98,0.00,,,0.00,weatherlink.com 1.10,2013-07-22 12:38:00,
2013-07-22 08:53:00,66.4,66.0,30.07,SSW,195,0.0,0.0,98,0.00,,,0.00,weatherlink.com 1.10,2013-07-22 12:53:00,
2013-07-22 09:08:00,66.9,66.0,30.07,South,191,0.0,0.0,97,0.00,,,0.00,weatherlink.com 1.10,2013-07-22 13:08:00,
2013-07-22 09:23:00,67.7,67.0,30.07,South,191,0.0,0.0,96,0.00,,,0.00,weatherlink.com 1.10,2013-07-22 13:23:00,
2013-07-22 09:38:00,68.4,67.0,30.07,NNE,31,0.0,2.0,94,0.00,,,0.00,weatherlink.com 1.10,2013-07-22 13:38:00,
2013-07-22 09:53:00,69.0,67.0,30.07,NNE,32,0.0,0.0,93,0.00,,,0.00,weatherlink.com 1.10,2013-07-22 13:53:00,
2013-07-22 10:08:00,70.1,67.0,30.07,NE,36,0.0,1.0,91,0.00,,,0.00,weatherlink.com 1.10,2013-07-22 14:08:00,
2013-07-22 10:23:00,70.5,68.0,30.07,NE,36,1.0,2.0,91,0.00,,,0.00,weatherlink.com 1.10,2013-07-22 14:23:00,
2013-07-22 10:38:00,70.4,66.0,30.06,East,82,0.0,1.0,85,0.00,,,0.00,weatherlink.com 1.10,2013-07-22 14:38:00,
2013-07-22 10:53:00,71.4,68.0,30.06,East,82,1.0,1.0,88,0.00,,,0.00,weatherlink.com 1.10,2013-07-22 14:53:00,
2013-07-22 11:08:00,72.5,67.0,30.06,NNE,18,0.0,1.0,83,0.00,,,0.00,weatherlink.com 1.10,2013-07-22 15:08:00,
2013-07-22 11:23:00,72.5,68.0,30.07,South,180,0.0,1.0,85,0.00,,,0.00,weatherlink.com 1.10,2013-07-22 15:23:00,
2013-07-22 11:38:00,73.4,66.0,30.07,NE,39,0.0,4.0,78,0.00,,,0.00,weatherlink.com 1.10,2013-07-22 15:38:00,
2013-07-22 11:53:00,75.1,67.0,30.06,NW,305,0.0,3.0,77,0.00,,,0.00,weatherlink.com 1.10,2013-07-22 15:53:00,
2013-07-22 12:08:00,74.3,68.0,30.06,ESE,108,1.0,4.0,80,0.00,,,0.00,weatherlink.com 1.10,2013-07-22 16:08:00,
2013-07-22 12:23:00,75.3,69.0,30.06,NW,305,0.0,2.0,80,0.00,,,0.00,weatherlink.com 1.10,2013-07-22 16:23:00,
2013-07-22 12:38:00,76.7,69.0,30.06,SE,136,0.0,1.0,76,0.00,,,0.00,weatherlink.com 1.10,2013-07-22 16:38:00,
2013-07-22 12:53:00,77.7,68.0,30.05,WNW,298,1.0,4.0,73,0.00,,,0.00,weatherlink.com 1.10,2013-07-22 16:53:00,
2013-07-22 13:08:00,77.8,68.0,30.04,ENE,75,1.0,2.0,71,0.00,,,0.00,weatherlink.com 1.10,2013-07-22 17:08:00,
2013-07-22 13:23:00,77.0,69.0,30.03,West,267,1.0,5.0,77,0.00,,,0.00,weatherlink.com 1.10,2013-07-22 17:23:00,
2013-07-22 13:38:00,78.9,69.0,30.02,NNE,15,1.0,3.0,72,0.00,,,0.00,weatherlink.com 1.10,2013-07-22 17:38:00,
2013-07-22 13:53:00,77.6,68.0,30.02,ESE,110,0.0,1.0,73,0.00,,,0.00,weatherlink.com 1.10,2013-07-22 17:53:00,
2013-07-22 14:23:00,78.1,70.0,30.01,NNE,27,4.0,4.0,75,0.00,,,0.00,weatherlink.com 1.10,2013-07-22 18:23:00,
2013-07-22 14:38:00,77.0,67.0,30.00,SSE,153,1.0,5.0,70,0.00,,,0.00,weatherlink.com 1.10,2013-07-22 18:38:00,
2013-07-22 14:53:00,76.9,68.0,30.00,NNE,25,0.0,5.0,74,0.00,,,0.00,weatherlink.com 1.10,2013-07-22 18:53:00,
2013-07-22 15:23:00,75.7,68.0,29.99,WSW,245,0.0,2.0,76,0.00,,,0.00,weatherlink.com 1.10,2013-07-22 19:23:00,
2013-07-22 15:38:00,74.7,67.0,29.99,ENE,72,1.0,3.0,78,0.00,,,0.00,weatherlink.com 1.10,2013-07-22 19:38:00,
2013-07-22 16:24:00,75.7,69.0,29.97,ESE,104,0.0,2.0,80,0.00,,,0.00,weatherlink.com 1.10,2013-07-22 20:24:00,
2013-07-22 16:39:00,75.7,68.0,29.97,NNW,347,0.0,2.0,78,0.00,,,0.00,weatherlink.com 1.10,2013-07-22 20:39:00,
2013-07-22 16:54:00,75.5,68.0,29.96,NNE,19,0.0,5.0,78,0.00,,,0.00,weatherlink.com 1.10,2013-07-22 20:54:00,
2013-07-22 17:09:00,75.2,66.0,29.95,SE,126,1.0,3.0,73,0.00,,,0.00,weatherlink.com 1.10,2013-07-22 21:09:00,
2013-07-22 17:24:00,75.0,68.0,29.94,NW,321,0.0,4.0,79,0.00,,,0.00,weatherlink.com 1.10,2013-07-22 21:24:00,
2013-07-22 17:39:00,74.4,68.0,29.95,North,350,0.0,2.0,80,0.00,,,0.00,weatherlink.com 1.10,2013-07-22 21:39:00,
2013-07-22 17:54:00,73.9,68.0,29.95,WNW,294,0.0,1.0,81,0.00,,,0.00,weatherlink.com 1.10,2013-07-22 21:54:00,
2013-07-22 18:09:00,73.4,68.0,29.94,WNW,293,0.0,1.0,83,0.00,,,0.00,weatherlink.com 1.10,2013-07-22 22:09:00,
2013-07-22 18:24:00,73.7,68.0,29.94,NNE,12,0.0,2.0,82,0.00,,,0.00,weatherlink.com 1.10,2013-07-22 22:24:00,
2013-07-22 18:39:00,73.4,67.0,29.93,ESE,122,0.0,4.0,81,0.00,,,0.00,weatherlink.com 1.10,2013-07-22 22:39:00,
2013-07-22 18:54:00,72.8,68.0,29.94,SE,134,0.0,1.0,84,0.00,,,0.00,weatherlink.com 1.10,2013-07-22 22:54:00,
2013-07-22 19:09:00,72.7,67.0,29.94,SSW,193,1.0,2.0,82,0.00,,,0.00,weatherlink.com 1.10,2013-07-22 23:09:00,
2013-07-22 19:24:00,71.9,68.0,29.94,SSE,164,1.0,3.0,86,0.00,,,0.00,weatherlink.com 1.10,2013-07-22 23:24:00,
2013-07-22 19:39:00,71.5,68.0,29.95,East,93,0.0,2.0,88,0.00,,,0.00,weatherlink.com 1.10,2013-07-22 23:39:00,
2013-07-22 19:54:00,70.5,68.0,29.94,ESE,117,1.0,1.0,90,0.03,,,0.03,weatherlink.com 1.10,2013-07-22 23:54:00,
2013-07-22 20:09:00,69.2,68.0,29.95,SE,131,0.0,1.0,94,0.16,,,0.16,weatherlink.com 1.10,2013-07-23 00:09:00,
2013-07-22 20:24:00,68.6,67.0,29.95,SSE,161,1.0,1.0,95,0.16,,,0.16,weatherlink.com 1.10,2013-07-23 00:24:00,
2013-07-22 20:39:00,68.4,67.0,29.95,West,276,0.0,5.0,96,0.16,,,0.16,weatherlink.com 1.10,2013-07-23 00:39:00,
2013-07-22 20:54:00,68.2,67.0,29.96,NW,305,0.0,3.0,96,0.13,,,0.16,weatherlink.com 1.10,2013-07-23 00:54:00,
2013-07-22 21:09:00,67.9,67.0,29.97,South,169,0.0,1.0,96,0.00,,,0.16,weatherlink.com 1.10,2013-07-23 01:09:00,
2013-07-22 21:24:00,67.3,66.0,29.98,SSE,167,0.0,2.0,96,0.00,,,0.16,weatherlink.com 1.10,2013-07-23 01:24:00,
2013-07-22 21:39:00,67.1,66.0,29.98,WNW,297,0.0,4.0,96,0.00,,,0.16,weatherlink.com 1.10,2013-07-23 01:39:00,
2013-07-22 21:54:00,67.0,66.0,29.99,South,179,0.0,3.0,96,0.00,,,0.16,weatherlink.com 1.10,2013-07-23 01:54:00,
2013-07-22 22:09:00,66.6,66.0,29.99,East,96,0.0,2.0,96,0.00,,,0.16,weatherlink.com 1.10,2013-07-23 02:09:00,
2013-07-22 22:24:00,66.0,65.0,29.99,SSE,154,0.0,1.0,96,0.00,,,0.16,weatherlink.com 1.10,2013-07-23 02:24:00,
2013-07-22 22:39:00,65.6,65.0,30.00,SSW,207,0.0,2.0,97,0.00,,,0.16,weatherlink.com 1.10,2013-07-23 02:39:00,
2013-07-22 22:54:00,65.2,64.0,29.99,SSE,162,1.0,2.0,97,0.00,,,0.16,weatherlink.com 1.10,2013-07-23 02:54:00,
2013-07-22 23:09:00,65.2,64.0,29.99,SSE,153,1.0,2.0,97,0.00,,,0.16,weatherlink.com 1.10,2013-07-23 03:09:00,
2013-07-22 23:24:00,65.0,64.0,29.99,SSE,154,1.0,1.0,97,0.00,,,0.16,weatherlink.com 1.10,2013-07-23 03:24:00,
2013-07-22 23:39:00,64.6,64.0,30.00,SSE,153,0.0,1.0,96,0.00,,,0.16,weatherlink.com 1.10,2013-07-23 03:39:00,
2013-07-22 23:54:00,64.5,64.0,30.00,SSE,165,0.0,2.0,97,0.00,,,0.16,weatherlink.com 1.10,2013-07-23 03:54:00,